sensor_id;sensor_type;location;lat;lon;timestamp;P1;durP1;ratioP1;P2;durP2;ratioP2
11807;SDS011;5961;42.640;23.380;2023-11-19T00:02:26;2.90;;;2.70;;
11807;SDS011;5961;42.640;23.380;2023-11-19T00:04:53;2.63;;;2.43;;
11807;SDS011;5961;42.640;23.380;2023-11-19T00:07:19;2.70;;;2.47;;
11807;SDS011;5961;42.640;23.380;2023-11-19T00:09:46;3.00;;;2.30;;
11807;SDS011;5961;42.640;23.380;2023-11-19T00:12:13;2.80;;;2.60;;
11807;SDS011;5961;42.640;23.380;2023-11-19T00:14:40;2.77;;;2.53;;
11807;SDS011;5961;42.640;23.380;2023-11-19T00:17:07;2.70;;;2.33;;
11807;SDS011;5961;42.640;23.380;2023-11-19T00:19:35;3.97;;;2.70;;
11807;SDS011;5961;42.640;23.380;2023-11-19T00:22:02;3.00;;;2.70;;
11807;SDS011;5961;42.640;23.380;2023-11-19T00:24:29;2.57;;;2.37;;
11807;SDS011;5961;42.640;23.380;2023-11-19T00:26:57;3.43;;;2.63;;
11807;SDS011;5961;42.640;23.380;2023-11-19T00:29:23;2.93;;;2.70;;
11807;SDS011;5961;42.640;23.380;2023-11-19T00:31:50;2.70;;;2.50;;
11807;SDS011;5961;42.640;23.380;2023-11-19T00:34:17;3.00;;;2.70;;
11807;SDS011;5961;42.640;23.380;2023-11-19T00:36:48;4.40;;;2.20;;
11807;SDS011;5961;42.640;23.380;2023-11-19T00:39:15;2.60;;;2.40;;
11807;SDS011;5961;42.640;23.380;2023-11-19T00:41:42;4.17;;;2.60;;
11807;SDS011;5961;42.640;23.380;2023-11-19T00:44:11;2.73;;;2.53;;
11807;SDS011;5961;42.640;23.380;2023-11-19T00:46:38;2.60;;;2.40;;
11807;SDS011;5961;42.640;23.380;2023-11-19T00:49:05;2.80;;;2.60;;
11807;SDS011;5961;42.640;23.380;2023-11-19T00:51:31;3.30;;;2.80;;
11807;SDS011;5961;42.640;23.380;2023-11-19T00:54:00;2.80;;;2.60;;
11807;SDS011;5961;42.640;23.380;2023-11-19T00:56:27;2.73;;;2.53;;
11807;SDS011;5961;42.640;23.380;2023-11-19T00:58:54;2.67;;;2.47;;
11807;SDS011;5961;42.640;23.380;2023-11-19T01:01:21;5.80;;;2.90;;
11807;SDS011;5961;42.640;23.380;2023-11-19T01:03:48;3.77;;;2.93;;
11807;SDS011;5961;42.640;23.380;2023-11-19T01:06:15;2.77;;;2.57;;
11807;SDS011;5961;42.640;23.380;2023-11-19T01:08:53;3.10;;;2.80;;
11807;SDS011;5961;42.640;23.380;2023-11-19T01:11:22;2.80;;;2.60;;
11807;SDS011;5961;42.640;23.380;2023-11-19T01:13:49;2.70;;;2.50;;
11807;SDS011;5961;42.640;23.380;2023-11-19T01:16:16;3.50;;;2.67;;
11807;SDS011;5961;42.640;23.380;2023-11-19T01:18:43;2.27;;;2.03;;
11807;SDS011;5961;42.640;23.380;2023-11-19T01:21:10;2.67;;;2.47;;
11807;SDS011;5961;42.640;23.380;2023-11-19T01:23:39;3.13;;;2.57;;
11807;SDS011;5961;42.640;23.380;2023-11-19T01:26:08;2.87;;;2.63;;
11807;SDS011;5961;42.640;23.380;2023-11-19T01:28:36;3.00;;;2.60;;
11807;SDS011;5961;42.640;23.380;2023-11-19T01:31:04;2.60;;;2.40;;
11807;SDS011;5961;42.640;23.380;2023-11-19T01:33:31;3.23;;;2.70;;
11807;SDS011;5961;42.640;23.380;2023-11-19T01:35:58;3.03;;;2.70;;
11807;SDS011;5961;42.640;23.380;2023-11-19T01:38:25;3.60;;;2.80;;
11807;SDS011;5961;42.640;23.380;2023-11-19T01:40:55;2.70;;;2.50;;
11807;SDS011;5961;42.640;23.380;2023-11-19T01:43:32;3.30;;;2.50;;
11807;SDS011;5961;42.640;23.380;2023-11-19T01:46:01;3.57;;;2.30;;
11807;SDS011;5961;42.640;23.380;2023-11-19T01:48:28;3.03;;;2.70;;
11807;SDS011;5961;42.640;23.380;2023-11-19T01:50:56;2.60;;;2.40;;
11807;SDS011;5961;42.640;23.380;2023-11-19T01:53:23;2.50;;;2.30;;
11807;SDS011;5961;42.640;23.380;2023-11-19T01:55:51;2.53;;;2.33;;
11807;SDS011;5961;42.640;23.380;2023-11-19T01:58:18;2.40;;;2.20;;
11807;SDS011;5961;42.640;23.380;2023-11-19T02:00:45;2.83;;;2.60;;
11807;SDS011;5961;42.640;23.380;2023-11-19T02:03:14;2.70;;;2.40;;
11807;SDS011;5961;42.640;23.380;2023-11-19T02:05:41;2.53;;;2.20;;
11807;SDS011;5961;42.640;23.380;2023-11-19T02:08:08;2.67;;;2.20;;
11807;SDS011;5961;42.640;23.380;2023-11-19T02:10:35;3.60;;;2.30;;
11807;SDS011;5961;42.640;23.380;2023-11-19T02:13:02;2.13;;;1.93;;
11807;SDS011;5961;42.640;23.380;2023-11-19T02:15:31;2.13;;;1.93;;
11807;SDS011;5961;42.640;23.380;2023-11-19T02:20:48;2.60;;;2.33;;
11807;SDS011;5961;42.640;23.380;2023-11-19T02:23:15;3.03;;;2.27;;
11807;SDS011;5961;42.640;23.380;2023-11-19T02:25:43;3.27;;;2.40;;
11807;SDS011;5961;42.640;23.380;2023-11-19T02:28:16;2.40;;;1.93;;
11807;SDS011;5961;42.640;23.380;2023-11-19T02:30:43;2.20;;;2.00;;
11807;SDS011;5961;42.640;23.380;2023-11-19T02:33:10;2.53;;;2.00;;
11807;SDS011;5961;42.640;23.380;2023-11-19T02:35:38;2.33;;;2.00;;
11807;SDS011;5961;42.640;23.380;2023-11-19T02:38:05;2.40;;;2.20;;
11807;SDS011;5961;42.640;23.380;2023-11-19T02:40:33;2.47;;;2.27;;
11807;SDS011;5961;42.640;23.380;2023-11-19T02:43:00;1.87;;;1.77;;
11807;SDS011;5961;42.640;23.380;2023-11-19T02:45:31;2.07;;;1.87;;
11807;SDS011;5961;42.640;23.380;2023-11-19T02:47:58;3.30;;;2.40;;
11807;SDS011;5961;42.640;23.380;2023-11-19T02:50:26;2.20;;;2.03;;
11807;SDS011;5961;42.640;23.380;2023-11-19T02:52:54;2.33;;;2.13;;
11807;SDS011;5961;42.640;23.380;2023-11-19T02:55:22;2.20;;;2.10;;
11807;SDS011;5961;42.640;23.380;2023-11-19T02:57:49;2.13;;;2.00;;
11807;SDS011;5961;42.640;23.380;2023-11-19T03:00:18;2.40;;;2.20;;
11807;SDS011;5961;42.640;23.380;2023-11-19T03:02:50;2.90;;;2.03;;
11807;SDS011;5961;42.640;23.380;2023-11-19T03:05:24;2.70;;;2.33;;
11807;SDS011;5961;42.640;23.380;2023-11-19T03:07:51;2.57;;;2.37;;
11807;SDS011;5961;42.640;23.380;2023-11-19T03:10:18;2.47;;;2.27;;
11807;SDS011;5961;42.640;23.380;2023-11-19T03:12:45;4.23;;;2.53;;
11807;SDS011;5961;42.640;23.380;2023-11-19T03:15:11;2.50;;;2.30;;
11807;SDS011;5961;42.640;23.380;2023-11-19T03:17:39;2.67;;;2.47;;
11807;SDS011;5961;42.640;23.380;2023-11-19T03:20:09;2.00;;;1.80;;
11807;SDS011;5961;42.640;23.380;2023-11-19T03:22:40;2.30;;;2.10;;
11807;SDS011;5961;42.640;23.380;2023-11-19T03:25:08;2.47;;;2.27;;
11807;SDS011;5961;42.640;23.380;2023-11-19T03:27:35;2.60;;;2.40;;
11807;SDS011;5961;42.640;23.380;2023-11-19T03:30:02;2.43;;;2.23;;
11807;SDS011;5961;42.640;23.380;2023-11-19T03:32:30;1.90;;;1.80;;
11807;SDS011;5961;42.640;23.380;2023-11-19T03:34:57;3.13;;;2.20;;
11807;SDS011;5961;42.640;23.380;2023-11-19T03:37:26;3.03;;;2.60;;
11807;SDS011;5961;42.640;23.380;2023-11-19T03:39:53;2.43;;;2.23;;
11807;SDS011;5961;42.640;23.380;2023-11-19T03:42:23;2.47;;;2.27;;
11807;SDS011;5961;42.640;23.380;2023-11-19T03:44:50;2.47;;;2.27;;
11807;SDS011;5961;42.640;23.380;2023-11-19T03:47:18;2.53;;;2.33;;
11807;SDS011;5961;42.640;23.380;2023-11-19T03:49:46;2.40;;;2.20;;
11807;SDS011;5961;42.640;23.380;2023-11-19T03:52:14;2.57;;;2.23;;
11807;SDS011;5961;42.640;23.380;2023-11-19T03:54:43;2.60;;;2.40;;
11807;SDS011;5961;42.640;23.380;2023-11-19T03:57:10;2.47;;;2.27;;
11807;SDS011;5961;42.640;23.380;2023-11-19T03:59:37;2.77;;;2.40;;
11807;SDS011;5961;42.640;23.380;2023-11-19T04:02:04;3.53;;;2.50;;
11807;SDS011;5961;42.640;23.380;2023-11-19T04:04:31;2.60;;;2.40;;
11807;SDS011;5961;42.640;23.380;2023-11-19T04:06:59;2.53;;;2.33;;
11807;SDS011;5961;42.640;23.380;2023-11-19T04:09:28;2.37;;;2.17;;
11807;SDS011;5961;42.640;23.380;2023-11-19T04:11:56;3.00;;;2.40;;
11807;SDS011;5961;42.640;23.380;2023-11-19T04:14:23;3.93;;;2.67;;
11807;SDS011;5961;42.640;23.380;2023-11-19T04:16:49;2.40;;;2.20;;
11807;SDS011;5961;42.640;23.380;2023-11-19T04:19:17;3.37;;;2.43;;
11807;SDS011;5961;42.640;23.380;2023-11-19T04:21:43;2.90;;;2.60;;
11807;SDS011;5961;42.640;23.380;2023-11-19T04:24:10;2.90;;;2.50;;
11807;SDS011;5961;42.640;23.380;2023-11-19T04:26:39;2.47;;;2.27;;
11807;SDS011;5961;42.640;23.380;2023-11-19T04:29:08;2.87;;;2.60;;
11807;SDS011;5961;42.640;23.380;2023-11-19T04:31:36;3.07;;;2.40;;
11807;SDS011;5961;42.640;23.380;2023-11-19T04:34:03;2.50;;;2.30;;
11807;SDS011;5961;42.640;23.380;2023-11-19T04:36:31;3.33;;;2.60;;
11807;SDS011;5961;42.640;23.380;2023-11-19T04:38:58;3.63;;;2.60;;
11807;SDS011;5961;42.640;23.380;2023-11-19T04:41:25;3.77;;;2.53;;
11807;SDS011;5961;42.640;23.380;2023-11-19T04:43:52;2.70;;;2.40;;
11807;SDS011;5961;42.640;23.380;2023-11-19T04:46:21;3.00;;;2.70;;
11807;SDS011;5961;42.640;23.380;2023-11-19T04:48:48;2.67;;;2.30;;
11807;SDS011;5961;42.640;23.380;2023-11-19T04:51:15;4.20;;;2.57;;
11807;SDS011;5961;42.640;23.380;2023-11-19T04:53:42;2.97;;;2.50;;
11807;SDS011;5961;42.640;23.380;2023-11-19T04:56:09;2.53;;;2.33;;
11807;SDS011;5961;42.640;23.380;2023-11-19T04:58:37;2.50;;;2.30;;
11807;SDS011;5961;42.640;23.380;2023-11-19T05:01:04;2.30;;;2.10;;
11807;SDS011;5961;42.640;23.380;2023-11-19T05:03:32;2.27;;;2.07;;
11807;SDS011;5961;42.640;23.380;2023-11-19T05:06:00;2.50;;;2.20;;
11807;SDS011;5961;42.640;23.380;2023-11-19T05:08:27;2.70;;;2.50;;
11807;SDS011;5961;42.640;23.380;2023-11-19T05:10:54;2.53;;;2.33;;
11807;SDS011;5961;42.640;23.380;2023-11-19T05:13:22;3.90;;;2.20;;
11807;SDS011;5961;42.640;23.380;2023-11-19T05:15:49;2.10;;;1.87;;
11807;SDS011;5961;42.640;23.380;2023-11-19T05:18:15;1.83;;;1.70;;
11807;SDS011;5961;42.640;23.380;2023-11-19T05:20:44;2.47;;;2.27;;
11807;SDS011;5961;42.640;23.380;2023-11-19T05:23:11;2.30;;;2.10;;
11807;SDS011;5961;42.640;23.380;2023-11-19T05:25:37;2.50;;;2.30;;
11807;SDS011;5961;42.640;23.380;2023-11-19T05:28:04;2.47;;;2.03;;
11807;SDS011;5961;42.640;23.380;2023-11-19T05:30:31;2.10;;;1.90;;
11807;SDS011;5961;42.640;23.380;2023-11-19T05:32:58;2.60;;;2.40;;
11807;SDS011;5961;42.640;23.380;2023-11-19T05:35:26;2.37;;;2.10;;
11807;SDS011;5961;42.640;23.380;2023-11-19T05:37:54;2.63;;;2.40;;
11807;SDS011;5961;42.640;23.380;2023-11-19T05:40:21;2.20;;;2.00;;
11807;SDS011;5961;42.640;23.380;2023-11-19T05:42:48;2.80;;;2.40;;
11807;SDS011;5961;42.640;23.380;2023-11-19T05:45:15;2.60;;;2.40;;
11807;SDS011;5961;42.640;23.380;2023-11-19T05:47:41;2.50;;;2.30;;
11807;SDS011;5961;42.640;23.380;2023-11-19T05:50:09;2.50;;;2.00;;
11807;SDS011;5961;42.640;23.380;2023-11-19T05:52:36;4.73;;;2.63;;
11807;SDS011;5961;42.640;23.380;2023-11-19T05:55:05;3.10;;;2.70;;
11807;SDS011;5961;42.640;23.380;2023-11-19T05:57:34;2.83;;;2.33;;
11807;SDS011;5961;42.640;23.380;2023-11-19T06:00:01;2.70;;;2.20;;
11807;SDS011;5961;42.640;23.380;2023-11-19T06:02:32;2.63;;;2.43;;
11807;SDS011;5961;42.640;23.380;2023-11-19T06:04:59;2.30;;;2.10;;
11807;SDS011;5961;42.640;23.380;2023-11-19T06:07:25;2.90;;;2.60;;
11807;SDS011;5961;42.640;23.380;2023-11-19T06:09:52;3.10;;;2.43;;
11807;SDS011;5961;42.640;23.380;2023-11-19T06:12:21;3.03;;;2.70;;
11807;SDS011;5961;42.640;23.380;2023-11-19T06:14:48;3.00;;;2.70;;
11807;SDS011;5961;42.640;23.380;2023-11-19T06:17:14;2.80;;;2.57;;
11807;SDS011;5961;42.640;23.380;2023-11-19T06:19:41;3.10;;;2.80;;
11807;SDS011;5961;42.640;23.380;2023-11-19T06:22:08;3.10;;;2.80;;
11807;SDS011;5961;42.640;23.380;2023-11-19T06:24:35;3.60;;;2.77;;
11807;SDS011;5961;42.640;23.380;2023-11-19T06:27:02;2.90;;;2.60;;
11807;SDS011;5961;42.640;23.380;2023-11-19T06:29:31;2.67;;;2.43;;
11807;SDS011;5961;42.640;23.380;2023-11-19T06:31:57;3.33;;;2.70;;
11807;SDS011;5961;42.640;23.380;2023-11-19T06:34:24;3.43;;;2.90;;
11807;SDS011;5961;42.640;23.380;2023-11-19T06:36:51;3.70;;;2.90;;
11807;SDS011;5961;42.640;23.380;2023-11-19T06:39:18;3.07;;;2.77;;
11807;SDS011;5961;42.640;23.380;2023-11-19T06:41:45;3.23;;;2.90;;
11807;SDS011;5961;42.640;23.380;2023-11-19T06:44:12;3.27;;;2.60;;
11807;SDS011;5961;42.640;23.380;2023-11-19T06:46:40;2.67;;;2.43;;
11807;SDS011;5961;42.640;23.380;2023-11-19T06:49:07;3.27;;;2.53;;
11807;SDS011;5961;42.640;23.380;2023-11-19T06:51:34;3.00;;;2.67;;
11807;SDS011;5961;42.640;23.380;2023-11-19T06:54:01;3.60;;;2.33;;
11807;SDS011;5961;42.640;23.380;2023-11-19T06:56:28;3.00;;;2.60;;
11807;SDS011;5961;42.640;23.380;2023-11-19T06:58:54;3.20;;;2.60;;
11807;SDS011;5961;42.640;23.380;2023-11-19T07:01:21;2.80;;;2.60;;
11807;SDS011;5961;42.640;23.380;2023-11-19T07:03:50;3.07;;;2.63;;
11807;SDS011;5961;42.640;23.380;2023-11-19T07:06:17;3.10;;;2.80;;
11807;SDS011;5961;42.640;23.380;2023-11-19T07:08:44;3.33;;;2.90;;
11807;SDS011;5961;42.640;23.380;2023-11-19T07:11:11;3.40;;;2.97;;
11807;SDS011;5961;42.640;23.380;2023-11-19T07:13:39;2.70;;;2.50;;
11807;SDS011;5961;42.640;23.380;2023-11-19T07:16:07;3.10;;;2.80;;
11807;SDS011;5961;42.640;23.380;2023-11-19T07:18:35;3.23;;;2.70;;
11807;SDS011;5961;42.640;23.380;2023-11-19T07:21:05;3.23;;;2.90;;
11807;SDS011;5961;42.640;23.380;2023-11-19T07:23:35;4.80;;;3.10;;
11807;SDS011;5961;42.640;23.380;2023-11-19T07:26:04;3.30;;;2.90;;
11807;SDS011;5961;42.640;23.380;2023-11-19T07:28:33;3.73;;;3.10;;
11807;SDS011;5961;42.640;23.380;2023-11-19T07:31:00;2.83;;;2.57;;
11807;SDS011;5961;42.640;23.380;2023-11-19T07:33:27;3.30;;;2.60;;
11807;SDS011;5961;42.640;23.380;2023-11-19T07:35:54;3.90;;;3.27;;
11807;SDS011;5961;42.640;23.380;2023-11-19T07:38:23;3.90;;;3.20;;
11807;SDS011;5961;42.640;23.380;2023-11-19T07:40:49;3.37;;;3.07;;
11807;SDS011;5961;42.640;23.380;2023-11-19T07:43:16;5.00;;;3.20;;
11807;SDS011;5961;42.640;23.380;2023-11-19T07:45:43;3.30;;;3.00;;
11807;SDS011;5961;42.640;23.380;2023-11-19T07:48:11;3.57;;;3.20;;
11807;SDS011;5961;42.640;23.380;2023-11-19T07:50:39;3.23;;;2.77;;
11807;SDS011;5961;42.640;23.380;2023-11-19T07:53:06;3.50;;;2.97;;
11807;SDS011;5961;42.640;23.380;2023-11-19T07:55:33;2.90;;;2.57;;
11807;SDS011;5961;42.640;23.380;2023-11-19T07:58:00;3.60;;;3.00;;
11807;SDS011;5961;42.640;23.380;2023-11-19T08:00:27;3.10;;;2.10;;
11807;SDS011;5961;42.640;23.380;2023-11-19T08:02:54;3.20;;;2.67;;
11807;SDS011;5961;42.640;23.380;2023-11-19T08:05:21;2.67;;;2.47;;
11807;SDS011;5961;42.640;23.380;2023-11-19T08:07:49;4.43;;;3.00;;
11807;SDS011;5961;42.640;23.380;2023-11-19T08:10:17;3.53;;;2.83;;
11807;SDS011;5961;42.640;23.380;2023-11-19T08:12:45;3.27;;;2.83;;
11807;SDS011;5961;42.640;23.380;2023-11-19T08:15:12;3.00;;;2.70;;
11807;SDS011;5961;42.640;23.380;2023-11-19T08:17:39;3.57;;;3.13;;
11807;SDS011;5961;42.640;23.380;2023-11-19T08:20:06;4.33;;;3.23;;
11807;SDS011;5961;42.640;23.380;2023-11-19T08:22:35;3.57;;;3.27;;
11807;SDS011;5961;42.640;23.380;2023-11-19T08:25:02;3.47;;;2.73;;
11807;SDS011;5961;42.640;23.380;2023-11-19T08:27:29;3.00;;;2.50;;
11807;SDS011;5961;42.640;23.380;2023-11-19T08:29:58;3.43;;;3.03;;
11807;SDS011;5961;42.640;23.380;2023-11-19T08:32:25;3.67;;;3.00;;
11807;SDS011;5961;42.640;23.380;2023-11-19T08:34:52;3.07;;;2.77;;
11807;SDS011;5961;42.640;23.380;2023-11-19T08:37:21;3.43;;;2.90;;
11807;SDS011;5961;42.640;23.380;2023-11-19T08:39:48;5.50;;;3.47;;
11807;SDS011;5961;42.640;23.380;2023-11-19T08:42:14;3.47;;;3.07;;
11807;SDS011;5961;42.640;23.380;2023-11-19T08:44:41;3.67;;;3.03;;
11807;SDS011;5961;42.640;23.380;2023-11-19T08:47:10;3.43;;;3.10;;
11807;SDS011;5961;42.640;23.380;2023-11-19T08:49:37;4.23;;;2.87;;
11807;SDS011;5961;42.640;23.380;2023-11-19T08:52:04;3.53;;;2.93;;
11807;SDS011;5961;42.640;23.380;2023-11-19T08:54:32;3.63;;;3.23;;
11807;SDS011;5961;42.640;23.380;2023-11-19T08:56:59;3.93;;;3.13;;
11807;SDS011;5961;42.640;23.380;2023-11-19T08:59:28;3.27;;;2.90;;
11807;SDS011;5961;42.640;23.380;2023-11-19T09:01:55;3.53;;;3.10;;
11807;SDS011;5961;42.640;23.380;2023-11-19T09:04:23;3.30;;;2.90;;
11807;SDS011;5961;42.640;23.380;2023-11-19T09:06:50;2.97;;;2.50;;
11807;SDS011;5961;42.640;23.380;2023-11-19T09:09:17;3.97;;;2.90;;
11807;SDS011;5961;42.640;23.380;2023-11-19T09:11:44;3.60;;;2.87;;
11807;SDS011;5961;42.640;23.380;2023-11-19T09:14:11;4.17;;;3.20;;
11807;SDS011;5961;42.640;23.380;2023-11-19T09:16:38;3.13;;;2.83;;
11807;SDS011;5961;42.640;23.380;2023-11-19T09:19:04;3.00;;;2.70;;
11807;SDS011;5961;42.640;23.380;2023-11-19T09:21:33;3.63;;;3.20;;
11807;SDS011;5961;42.640;23.380;2023-11-19T09:24:03;4.63;;;3.10;;
11807;SDS011;5961;42.640;23.380;2023-11-19T09:26:30;4.43;;;2.87;;
11807;SDS011;5961;42.640;23.380;2023-11-19T09:28:57;3.10;;;2.80;;
11807;SDS011;5961;42.640;23.380;2023-11-19T09:31:24;3.10;;;2.80;;
11807;SDS011;5961;42.640;23.380;2023-11-19T09:33:50;3.43;;;3.13;;
11807;SDS011;5961;42.640;23.380;2023-11-19T09:36:17;3.10;;;2.60;;
11807;SDS011;5961;42.640;23.380;2023-11-19T09:38:45;3.40;;;3.10;;
11807;SDS011;5961;42.640;23.380;2023-11-19T09:41:12;2.80;;;2.50;;
11807;SDS011;5961;42.640;23.380;2023-11-19T09:43:39;3.33;;;3.00;;
11807;SDS011;5961;42.640;23.380;2023-11-19T09:46:09;3.20;;;2.90;;
11807;SDS011;5961;42.640;23.380;2023-11-19T09:48:37;3.23;;;2.80;;
11807;SDS011;5961;42.640;23.380;2023-11-19T09:51:05;2.97;;;2.67;;
11807;SDS011;5961;42.640;23.380;2023-11-19T09:53:32;3.13;;;2.70;;
11807;SDS011;5961;42.640;23.380;2023-11-19T09:56:00;3.47;;;3.17;;
11807;SDS011;5961;42.640;23.380;2023-11-19T09:58:28;2.93;;;2.50;;
11807;SDS011;5961;42.640;23.380;2023-11-19T10:00:56;3.10;;;2.80;;
11807;SDS011;5961;42.640;23.380;2023-11-19T10:03:25;2.83;;;2.57;;
11807;SDS011;5961;42.640;23.380;2023-11-19T10:05:53;3.00;;;2.57;;
11807;SDS011;5961;42.640;23.380;2023-11-19T10:08:21;2.63;;;2.37;;
11807;SDS011;5961;42.640;23.380;2023-11-19T10:10:48;3.03;;;2.63;;
11807;SDS011;5961;42.640;23.380;2023-11-19T10:13:18;2.47;;;2.27;;
11807;SDS011;5961;42.640;23.380;2023-11-19T10:15:45;3.13;;;2.67;;
11807;SDS011;5961;42.640;23.380;2023-11-19T10:18:14;7.67;;;3.30;;
11807;SDS011;5961;42.640;23.380;2023-11-19T10:20:41;3.13;;;2.80;;
11807;SDS011;5961;42.640;23.380;2023-11-19T10:23:09;2.93;;;2.40;;
11807;SDS011;5961;42.640;23.380;2023-11-19T10:25:36;2.97;;;2.67;;
11807;SDS011;5961;42.640;23.380;2023-11-19T10:28:03;3.03;;;2.53;;
11807;SDS011;5961;42.640;23.380;2023-11-19T10:30:31;4.23;;;2.73;;
11807;SDS011;5961;42.640;23.380;2023-11-19T10:33:02;2.33;;;2.13;;
11807;SDS011;5961;42.640;23.380;2023-11-19T10:35:31;2.73;;;2.40;;
11807;SDS011;5961;42.640;23.380;2023-11-19T10:37:58;2.87;;;2.43;;
11807;SDS011;5961;42.640;23.380;2023-11-19T10:40:37;3.67;;;2.53;;
11807;SDS011;5961;42.640;23.380;2023-11-19T10:43:08;3.43;;;2.37;;
11807;SDS011;5961;42.640;23.380;2023-11-19T10:45:44;2.70;;;2.37;;
11807;SDS011;5961;42.640;23.380;2023-11-19T10:48:11;3.00;;;2.67;;
11807;SDS011;5961;42.640;23.380;2023-11-19T10:50:38;2.90;;;2.67;;
11807;SDS011;5961;42.640;23.380;2023-11-19T10:53:06;2.57;;;2.23;;
11807;SDS011;5961;42.640;23.380;2023-11-19T10:55:34;2.53;;;2.20;;
11807;SDS011;5961;42.640;23.380;2023-11-19T10:58:04;2.47;;;2.20;;
11807;SDS011;5961;42.640;23.380;2023-11-19T11:00:37;2.37;;;2.17;;
11807;SDS011;5961;42.640;23.380;2023-11-19T11:03:10;2.73;;;2.53;;
11807;SDS011;5961;42.640;23.380;2023-11-19T11:05:41;2.83;;;2.63;;
11807;SDS011;5961;42.640;23.380;2023-11-19T11:08:09;3.37;;;2.97;;
11807;SDS011;5961;42.640;23.380;2023-11-19T11:10:39;2.57;;;2.33;;
11807;SDS011;5961;42.640;23.380;2023-11-19T11:13:09;2.90;;;2.63;;
11807;SDS011;5961;42.640;23.380;2023-11-19T11:15:37;2.63;;;2.30;;
11807;SDS011;5961;42.640;23.380;2023-11-19T11:18:04;3.63;;;2.60;;
11807;SDS011;5961;42.640;23.380;2023-11-19T11:20:35;2.83;;;2.50;;
11807;SDS011;5961;42.640;23.380;2023-11-19T11:23:12;3.43;;;2.53;;
11807;SDS011;5961;42.640;23.380;2023-11-19T11:25:59;2.90;;;2.60;;
11807;SDS011;5961;42.640;23.380;2023-11-19T11:28:41;2.83;;;2.50;;
11807;SDS011;5961;42.640;23.380;2023-11-19T11:31:15;3.03;;;2.10;;
11807;SDS011;5961;42.640;23.380;2023-11-19T11:34:02;2.67;;;2.40;;
11807;SDS011;5961;42.640;23.380;2023-11-19T11:36:45;2.87;;;2.57;;
11807;SDS011;5961;42.640;23.380;2023-11-19T11:39:20;2.67;;;2.47;;
11807;SDS011;5961;42.640;23.380;2023-11-19T11:42:02;3.53;;;2.43;;
11807;SDS011;5961;42.640;23.380;2023-11-19T11:44:59;2.97;;;2.60;;
11807;SDS011;5961;42.640;23.380;2023-11-19T11:50:27;2.43;;;2.23;;
11807;SDS011;5961;42.640;23.380;2023-11-19T11:53:15;3.03;;;2.40;;
11807;SDS011;5961;42.640;23.380;2023-11-19T11:55:52;2.77;;;2.50;;
11807;SDS011;5961;42.640;23.380;2023-11-19T11:58:29;2.90;;;2.30;;
11807;SDS011;5961;42.640;23.380;2023-11-19T12:00:58;2.50;;;2.30;;
11807;SDS011;5961;42.640;23.380;2023-11-19T12:03:27;2.80;;;2.37;;
11807;SDS011;5961;42.640;23.380;2023-11-19T12:05:55;2.53;;;2.33;;
11807;SDS011;5961;42.640;23.380;2023-11-19T12:08:26;2.47;;;2.27;;
11807;SDS011;5961;42.640;23.380;2023-11-19T12:10:54;3.60;;;2.70;;
11807;SDS011;5961;42.640;23.380;2023-11-19T12:13:24;2.77;;;2.57;;
11807;SDS011;5961;42.640;23.380;2023-11-19T12:16:08;3.47;;;2.77;;
11807;SDS011;5961;42.640;23.380;2023-11-19T12:18:36;2.50;;;2.30;;
11807;SDS011;5961;42.640;23.380;2023-11-19T12:21:05;2.97;;;2.73;;
11807;SDS011;5961;42.640;23.380;2023-11-19T12:23:36;3.00;;;2.57;;
11807;SDS011;5961;42.640;23.380;2023-11-19T12:26:20;2.90;;;2.60;;
11807;SDS011;5961;42.640;23.380;2023-11-19T12:28:57;3.30;;;2.90;;
11807;SDS011;5961;42.640;23.380;2023-11-19T12:31:24;3.07;;;2.50;;
11807;SDS011;5961;42.640;23.380;2023-11-19T12:33:51;3.00;;;2.70;;
11807;SDS011;5961;42.640;23.380;2023-11-19T12:36:18;3.40;;;2.93;;
11807;SDS011;5961;42.640;23.380;2023-11-19T12:38:47;4.00;;;3.27;;
11807;SDS011;5961;42.640;23.380;2023-11-19T12:41:14;3.83;;;3.00;;
11807;SDS011;5961;42.640;23.380;2023-11-19T12:43:45;3.40;;;3.10;;
11807;SDS011;5961;42.640;23.380;2023-11-19T12:46:19;4.90;;;2.90;;
11807;SDS011;5961;42.640;23.380;2023-11-19T12:48:47;3.40;;;3.10;;
11807;SDS011;5961;42.640;23.380;2023-11-19T12:51:14;5.23;;;3.07;;
11807;SDS011;5961;42.640;23.380;2023-11-19T12:53:49;3.60;;;3.23;;
11807;SDS011;5961;42.640;23.380;2023-11-19T12:56:19;3.30;;;3.00;;
11807;SDS011;5961;42.640;23.380;2023-11-19T12:58:46;3.90;;;3.50;;
11807;SDS011;5961;42.640;23.380;2023-11-19T13:01:15;4.57;;;3.70;;
11807;SDS011;5961;42.640;23.380;2023-11-19T13:03:44;3.40;;;3.10;;
11807;SDS011;5961;42.640;23.380;2023-11-19T13:06:12;3.37;;;3.07;;
11807;SDS011;5961;42.640;23.380;2023-11-19T13:08:41;3.20;;;2.90;;
11807;SDS011;5961;42.640;23.380;2023-11-19T13:11:12;3.57;;;3.00;;
11807;SDS011;5961;42.640;23.380;2023-11-19T13:13:53;3.23;;;2.93;;
11807;SDS011;5961;42.640;23.380;2023-11-19T13:16:20;3.77;;;3.47;;
11807;SDS011;5961;42.640;23.380;2023-11-19T13:18:47;4.53;;;3.33;;
11807;SDS011;5961;42.640;23.380;2023-11-19T13:21:14;3.23;;;3.00;;
11807;SDS011;5961;42.640;23.380;2023-11-19T13:23:41;3.27;;;2.97;;
11807;SDS011;5961;42.640;23.380;2023-11-19T13:26:08;3.53;;;2.93;;
11807;SDS011;5961;42.640;23.380;2023-11-19T13:28:36;2.80;;;2.60;;
11807;SDS011;5961;42.640;23.380;2023-11-19T13:31:03;3.27;;;2.97;;
11807;SDS011;5961;42.640;23.380;2023-11-19T13:33:30;4.73;;;3.20;;
11807;SDS011;5961;42.640;23.380;2023-11-19T13:35:57;3.43;;;3.10;;
11807;SDS011;5961;42.640;23.380;2023-11-19T13:38:25;3.57;;;3.27;;
11807;SDS011;5961;42.640;23.380;2023-11-19T13:40:51;5.23;;;4.20;;
11807;SDS011;5961;42.640;23.380;2023-11-19T13:43:18;5.43;;;4.07;;
11807;SDS011;5961;42.640;23.380;2023-11-19T13:45:47;4.50;;;3.87;;
11807;SDS011;5961;42.640;23.380;2023-11-19T13:48:13;5.10;;;3.87;;
11807;SDS011;5961;42.640;23.380;2023-11-19T13:50:41;4.73;;;3.57;;
11807;SDS011;5961;42.640;23.380;2023-11-19T13:53:08;4.77;;;3.77;;
11807;SDS011;5961;42.640;23.380;2023-11-19T13:55:35;3.73;;;3.17;;
11807;SDS011;5961;42.640;23.380;2023-11-19T13:58:02;3.73;;;3.33;;
11807;SDS011;5961;42.640;23.380;2023-11-19T14:00:29;3.80;;;3.13;;
11807;SDS011;5961;42.640;23.380;2023-11-19T14:02:57;3.37;;;3.07;;
11807;SDS011;5961;42.640;23.380;2023-11-19T14:05:24;3.50;;;3.17;;
11807;SDS011;5961;42.640;23.380;2023-11-19T14:07:51;3.93;;;3.33;;
11807;SDS011;5961;42.640;23.380;2023-11-19T14:10:19;3.27;;;2.97;;
11807;SDS011;5961;42.640;23.380;2023-11-19T14:12:45;8.47;;;4.10;;
11807;SDS011;5961;42.640;23.380;2023-11-19T14:15:12;3.30;;;3.00;;
11807;SDS011;5961;42.640;23.380;2023-11-19T14:17:39;3.67;;;3.17;;
11807;SDS011;5961;42.640;23.380;2023-11-19T14:20:08;4.33;;;3.40;;
11807;SDS011;5961;42.640;23.380;2023-11-19T14:22:38;4.77;;;4.00;;
11807;SDS011;5961;42.640;23.380;2023-11-19T14:25:05;4.83;;;4.10;;
11807;SDS011;5961;42.640;23.380;2023-11-19T14:27:35;6.10;;;4.70;;
11807;SDS011;5961;42.640;23.380;2023-11-19T14:30:03;5.70;;;3.97;;
11807;SDS011;5961;42.640;23.380;2023-11-19T14:32:31;5.47;;;4.60;;
11807;SDS011;5961;42.640;23.380;2023-11-19T14:34:58;6.87;;;4.50;;
11807;SDS011;5961;42.640;23.380;2023-11-19T14:37:26;6.37;;;4.03;;
11807;SDS011;5961;42.640;23.380;2023-11-19T14:39:53;5.17;;;4.10;;
11807;SDS011;5961;42.640;23.380;2023-11-19T14:42:20;5.40;;;3.40;;
11807;SDS011;5961;42.640;23.380;2023-11-19T14:44:47;4.83;;;3.70;;
11807;SDS011;5961;42.640;23.380;2023-11-19T14:47:14;3.30;;;2.97;;
11807;SDS011;5961;42.640;23.380;2023-11-19T14:49:41;3.47;;;3.17;;
11807;SDS011;5961;42.640;23.380;2023-11-19T14:52:08;6.07;;;3.37;;
11807;SDS011;5961;42.640;23.380;2023-11-19T14:54:36;5.37;;;4.40;;
11807;SDS011;5961;42.640;23.380;2023-11-19T14:57:04;6.10;;;4.37;;
11807;SDS011;5961;42.640;23.380;2023-11-19T14:59:31;4.63;;;3.67;;
11807;SDS011;5961;42.640;23.380;2023-11-19T15:01:59;5.57;;;3.80;;